Allen Jay, North Carolina
Current Conditions -  °F | °C
As of 9:54 PM on Tuesday 25 Nov 2014 (Local Time) from KGSO Reporting Station
Light Rain Light Rain  
Wind Chill: 50°   Ceiling: 3200
Heat Index: 50°   Visibility: 10mi
Dew Point: 42°   Wind: 6mph
Humidity: 74%   Direction: 100°E
Pressure: 30.07"   Gusts: NA
Location:  35.9136°N, 79.9465°W
Report Text: KGSO 260254Z 10005KT 10SM -RA BKN032 OVC060 10/06 A3007 RMK AO2 RAB0156 SLP179 P0001 60001 T01000056 50002
Loading
Personal Weather Stations






























Interactive Weather Map New forecast layout! Learn more

10-Day Weather Forecast

Advertisements
Track Severe Weather on mobile